sensor_id;sensor_type;location;lat;lon;timestamp;P1;durP1;ratioP1;P2;durP2;ratioP2
9222;SDS011;7557;51.698;3.942;2023-08-31T00:00:12;887.45;;;833.22;;
9222;SDS011;7557;51.698;3.942;2023-08-31T00:02:41;841.85;;;792.35;;
9222;SDS011;7557;51.698;3.942;2023-08-31T00:05:08;891.67;;;835.10;;
9222;SDS011;7557;51.698;3.942;2023-08-31T00:07:35;913.38;;;854.03;;
9222;SDS011;7557;51.698;3.942;2023-08-31T00:10:03;922.55;;;863.47;;
9222;SDS011;7557;51.698;3.942;2023-08-31T00:12:36;926.85;;;865.60;;
9222;SDS011;7557;51.698;3.942;2023-08-31T00:15:03;953.55;;;888.08;;
9222;SDS011;7557;51.698;3.942;2023-08-31T00:17:31;906.22;;;848.15;;
9222;SDS011;7557;51.698;3.942;2023-08-31T00:19:58;928.17;;;865.83;;
9222;SDS011;7557;51.698;3.942;2023-08-31T00:22:26;896.50;;;840.35;;
9222;SDS011;7557;51.698;3.942;2023-08-31T00:24:53;946.45;;;883.53;;
9222;SDS011;7557;51.698;3.942;2023-08-31T00:27:21;936.17;;;873.97;;
9222;SDS011;7557;51.698;3.942;2023-08-31T00:29:49;938.15;;;877.95;;
9222;SDS011;7557;51.698;3.942;2023-08-31T00:32:17;942.45;;;878.92;;
9222;SDS011;7557;51.698;3.942;2023-08-31T00:34:47;964.05;;;896.08;;
9222;SDS011;7557;51.698;3.942;2023-08-31T00:37:14;982.35;;;909.85;;
9222;SDS011;7557;51.698;3.942;2023-08-31T00:39:42;977.05;;;907.50;;
9222;SDS011;7557;51.698;3.942;2023-08-31T00:42:09;984.78;;;914.60;;
9222;SDS011;7557;51.698;3.942;2023-08-31T00:44:36;1003.17;;;929.05;;
9222;SDS011;7557;51.698;3.942;2023-08-31T00:47:19;985.67;;;915.22;;
9222;SDS011;7557;51.698;3.942;2023-08-31T00:49:46;975.33;;;907.58;;
9222;SDS011;7557;51.698;3.942;2023-08-31T00:52:14;960.90;;;895.70;;
9222;SDS011;7557;51.698;3.942;2023-08-31T00:54:42;928.92;;;868.60;;
9222;SDS011;7557;51.698;3.942;2023-08-31T00:57:09;916.80;;;859.83;;
9222;SDS011;7557;51.698;3.942;2023-08-31T00:59:36;928.75;;;868.88;;
9222;SDS011;7557;51.698;3.942;2023-08-31T01:02:05;847.45;;;795.90;;
9222;SDS011;7557;51.698;3.942;2023-08-31T01:04:45;702.88;;;668.40;;
9222;SDS011;7557;51.698;3.942;2023-08-31T01:07:21;563.03;;;540.03;;
9222;SDS011;7557;51.698;3.942;2023-08-31T01:09:59;771.65;;;733.20;;
9222;SDS011;7557;51.698;3.942;2023-08-31T01:12:33;779.58;;;740.78;;
9222;SDS011;7557;51.698;3.942;2023-08-31T01:15:03;778.58;;;739.28;;
9222;SDS011;7557;51.698;3.942;2023-08-31T01:17:33;846.22;;;800.17;;
9222;SDS011;7557;51.698;3.942;2023-08-31T01:20:06;826.88;;;781.92;;
9222;SDS011;7557;51.698;3.942;2023-08-31T01:22:38;818.15;;;774.53;;
9222;SDS011;7557;51.698;3.942;2023-08-31T01:25:11;855.72;;;809.47;;
9222;SDS011;7557;51.698;3.942;2023-08-31T01:27:39;851.97;;;803.60;;
9222;SDS011;7557;51.698;3.942;2023-08-31T01:30:07;888.80;;;837.17;;
9222;SDS011;7557;51.698;3.942;2023-08-31T01:32:36;876.22;;;824.75;;
9222;SDS011;7557;51.698;3.942;2023-08-31T01:35:03;875.95;;;825.42;;
9222;SDS011;7557;51.698;3.942;2023-08-31T01:37:34;902.60;;;849.83;;
9222;SDS011;7557;51.698;3.942;2023-08-31T01:40:09;859.60;;;811.75;;
9222;SDS011;7557;51.698;3.942;2023-08-31T01:42:44;875.83;;;825.20;;
9222;SDS011;7557;51.698;3.942;2023-08-31T01:45:14;862.17;;;813.53;;
9222;SDS011;7557;51.698;3.942;2023-08-31T01:47:44;867.45;;;817.55;;
9222;SDS011;7557;51.698;3.942;2023-08-31T01:50:11;857.22;;;808.08;;
9222;SDS011;7557;51.698;3.942;2023-08-31T01:52:38;890.42;;;837.63;;
9222;SDS011;7557;51.698;3.942;2023-08-31T01:55:06;882.08;;;830.88;;
9222;SDS011;7557;51.698;3.942;2023-08-31T01:57:35;900.00;;;847.10;;
9222;SDS011;7557;51.698;3.942;2023-08-31T02:00:02;881.97;;;830.28;;
9222;SDS011;7557;51.698;3.942;2023-08-31T02:02:31;922.67;;;867.53;;
9222;SDS011;7557;51.698;3.942;2023-08-31T02:04:58;919.67;;;864.47;;
9222;SDS011;7557;51.698;3.942;2023-08-31T02:07:27;914.33;;;858.53;;
9222;SDS011;7557;51.698;3.942;2023-08-31T02:09:54;884.63;;;831.67;;
9222;SDS011;7557;51.698;3.942;2023-08-31T02:12:21;899.80;;;845.85;;
9222;SDS011;7557;51.698;3.942;2023-08-31T02:14:50;906.17;;;851.15;;
9222;SDS011;7557;51.698;3.942;2023-08-31T02:17:17;926.63;;;869.97;;
9222;SDS011;7557;51.698;3.942;2023-08-31T02:19:44;923.33;;;866.80;;
9222;SDS011;7557;51.698;3.942;2023-08-31T02:22:11;920.60;;;863.03;;
9222;SDS011;7557;51.698;3.942;2023-08-31T02:24:39;912.10;;;856.28;;
9222;SDS011;7557;51.698;3.942;2023-08-31T02:27:06;918.35;;;861.92;;
9222;SDS011;7557;51.698;3.942;2023-08-31T02:29:33;929.17;;;871.90;;
9222;SDS011;7557;51.698;3.942;2023-08-31T02:32:03;933.80;;;874.65;;
9222;SDS011;7557;51.698;3.942;2023-08-31T02:34:30;944.22;;;885.17;;
9222;SDS011;7557;51.698;3.942;2023-08-31T02:36:58;934.83;;;874.08;;
9222;SDS011;7557;51.698;3.942;2023-08-31T02:39:25;922.72;;;865.05;;
9222;SDS011;7557;51.698;3.942;2023-08-31T02:41:52;952.00;;;889.35;;
9222;SDS011;7557;51.698;3.942;2023-08-31T02:44:19;928.47;;;868.63;;
9222;SDS011;7557;51.698;3.942;2023-08-31T02:46:47;949.10;;;887.53;;
9222;SDS011;7557;51.698;3.942;2023-08-31T02:49:15;930.08;;;870.58;;
9222;SDS011;7557;51.698;3.942;2023-08-31T02:51:42;914.45;;;855.92;;
9222;SDS011;7557;51.698;3.942;2023-08-31T02:54:10;944.08;;;883.38;;
9222;SDS011;7557;51.698;3.942;2023-08-31T02:56:37;902.42;;;848.42;;
9222;SDS011;7557;51.698;3.942;2023-08-31T02:59:04;914.58;;;857.80;;
9222;SDS011;7557;51.698;3.942;2023-08-31T03:01:31;929.08;;;870.05;;
9222;SDS011;7557;51.698;3.942;2023-08-31T03:03:58;925.35;;;867.38;;
9222;SDS011;7557;51.698;3.942;2023-08-31T03:06:27;913.20;;;857.08;;
9222;SDS011;7557;51.698;3.942;2023-08-31T03:08:54;898.17;;;843.15;;
9222;SDS011;7557;51.698;3.942;2023-08-31T03:11:22;908.85;;;853.53;;
9222;SDS011;7557;51.698;3.942;2023-08-31T03:13:50;910.83;;;854.97;;
9222;SDS011;7557;51.698;3.942;2023-08-31T03:16:17;902.65;;;848.58;;
9222;SDS011;7557;51.698;3.942;2023-08-31T03:18:44;902.45;;;847.90;;
9222;SDS011;7557;51.698;3.942;2023-08-31T03:21:12;909.63;;;853.50;;
9222;SDS011;7557;51.698;3.942;2023-08-31T03:23:40;911.05;;;854.47;;
9222;SDS011;7557;51.698;3.942;2023-08-31T03:26:07;944.63;;;884.15;;
9222;SDS011;7557;51.698;3.942;2023-08-31T03:28:34;918.20;;;861.55;;
9222;SDS011;7557;51.698;3.942;2023-08-31T03:31:03;945.80;;;884.63;;
9222;SDS011;7557;51.698;3.942;2023-08-31T03:33:31;926.17;;;868.40;;
9222;SDS011;7557;51.698;3.942;2023-08-31T03:35:59;917.63;;;860.90;;
9222;SDS011;7557;51.698;3.942;2023-08-31T03:38:29;913.25;;;856.75;;
9222;SDS011;7557;51.698;3.942;2023-08-31T03:40:58;917.35;;;860.92;;
9222;SDS011;7557;51.698;3.942;2023-08-31T03:43:25;909.00;;;853.45;;
9222;SDS011;7557;51.698;3.942;2023-08-31T03:45:56;905.15;;;849.95;;
9222;SDS011;7557;51.698;3.942;2023-08-31T03:48:24;880.72;;;829.58;;
9222;SDS011;7557;51.698;3.942;2023-08-31T03:50:52;866.20;;;816.38;;
9222;SDS011;7557;51.698;3.942;2023-08-31T03:53:20;877.35;;;825.50;;
9222;SDS011;7557;51.698;3.942;2023-08-31T03:55:47;872.35;;;820.58;;
9222;SDS011;7557;51.698;3.942;2023-08-31T03:58:16;868.65;;;819.65;;
9222;SDS011;7557;51.698;3.942;2023-08-31T04:00:43;888.33;;;837.03;;
9222;SDS011;7557;51.698;3.942;2023-08-31T04:03:10;896.70;;;843.80;;
9222;SDS011;7557;51.698;3.942;2023-08-31T04:05:37;899.90;;;846.63;;
9222;SDS011;7557;51.698;3.942;2023-08-31T04:08:05;877.40;;;825.75;;
9222;SDS011;7557;51.698;3.942;2023-08-31T04:10:32;891.10;;;836.80;;
9222;SDS011;7557;51.698;3.942;2023-08-31T04:13:00;919.53;;;861.88;;
9222;SDS011;7557;51.698;3.942;2023-08-31T04:15:28;902.78;;;847.38;;
9222;SDS011;7557;51.698;3.942;2023-08-31T04:17:56;889.88;;;836.80;;
9222;SDS011;7557;51.698;3.942;2023-08-31T04:20:23;872.38;;;821.45;;
9222;SDS011;7557;51.698;3.942;2023-08-31T04:22:51;910.97;;;855.43;;
9222;SDS011;7557;51.698;3.942;2023-08-31T04:25:18;899.20;;;844.38;;
9222;SDS011;7557;51.698;3.942;2023-08-31T04:27:45;894.45;;;838.88;;
9222;SDS011;7557;51.698;3.942;2023-08-31T04:30:12;866.88;;;817.53;;
9222;SDS011;7557;51.698;3.942;2023-08-31T04:32:42;894.13;;;839.88;;
9222;SDS011;7557;51.698;3.942;2023-08-31T04:35:11;903.38;;;849.42;;
9222;SDS011;7557;51.698;3.942;2023-08-31T04:37:39;871.97;;;820.97;;
9222;SDS011;7557;51.698;3.942;2023-08-31T04:40:07;908.30;;;852.33;;
9222;SDS011;7557;51.698;3.942;2023-08-31T04:42:37;927.38;;;868.63;;
9222;SDS011;7557;51.698;3.942;2023-08-31T04:45:05;914.83;;;858.63;;
9222;SDS011;7557;51.698;3.942;2023-08-31T04:47:33;902.30;;;847.65;;
9222;SDS011;7557;51.698;3.942;2023-08-31T04:50:02;911.15;;;856.60;;
9222;SDS011;7557;51.698;3.942;2023-08-31T04:52:31;880.97;;;828.25;;
9222;SDS011;7557;51.698;3.942;2023-08-31T04:55:00;853.65;;;805.35;;
9222;SDS011;7557;51.698;3.942;2023-08-31T04:57:28;854.42;;;805.28;;
9222;SDS011;7557;51.698;3.942;2023-08-31T04:59:56;846.15;;;798.00;;
9222;SDS011;7557;51.698;3.942;2023-08-31T05:02:23;849.97;;;802.33;;
9222;SDS011;7557;51.698;3.942;2023-08-31T05:04:53;857.88;;;809.70;;
9222;SDS011;7557;51.698;3.942;2023-08-31T05:07:22;900.72;;;845.58;;
9222;SDS011;7557;51.698;3.942;2023-08-31T05:09:49;882.72;;;829.97;;
9222;SDS011;7557;51.698;3.942;2023-08-31T05:12:17;866.08;;;815.38;;
9222;SDS011;7557;51.698;3.942;2023-08-31T05:14:44;860.83;;;809.78;;
9222;SDS011;7557;51.698;3.942;2023-08-31T05:17:11;850.25;;;802.13;;
9222;SDS011;7557;51.698;3.942;2023-08-31T05:19:39;818.08;;;774.08;;
9222;SDS011;7557;51.698;3.942;2023-08-31T05:22:06;793.88;;;752.65;;
9222;SDS011;7557;51.698;3.942;2023-08-31T05:24:35;810.45;;;768.03;;
9222;SDS011;7557;51.698;3.942;2023-08-31T05:27:02;790.92;;;750.00;;
9222;SDS011;7557;51.698;3.942;2023-08-31T05:29:30;780.33;;;740.60;;
9222;SDS011;7557;51.698;3.942;2023-08-31T05:31:57;809.97;;;766.58;;
9222;SDS011;7557;51.698;3.942;2023-08-31T05:34:25;806.05;;;762.47;;
9222;SDS011;7557;51.698;3.942;2023-08-31T05:36:52;887.75;;;832.22;;
9222;SDS011;7557;51.698;3.942;2023-08-31T05:39:19;968.42;;;900.00;;
9222;SDS011;7557;51.698;3.942;2023-08-31T05:41:48;1003.72;;;930.83;;
9222;SDS011;7557;51.698;3.942;2023-08-31T05:44:16;1002.10;;;927.45;;
9222;SDS011;7557;51.698;3.942;2023-08-31T05:46:43;1035.63;;;954.35;;
9222;SDS011;7557;51.698;3.942;2023-08-31T05:49:10;1077.18;;;990.05;;
9222;SDS011;7557;51.698;3.942;2023-08-31T05:51:38;1048.07;;;961.47;;
9222;SDS011;7557;51.698;3.942;2023-08-31T05:54:05;1092.18;;;994.05;;
9222;SDS011;7557;51.698;3.942;2023-08-31T05:56:37;1087.80;;;995.38;;
9222;SDS011;7557;51.698;3.942;2023-08-31T05:59:07;1097.63;;;998.63;;
9222;SDS011;7557;51.698;3.942;2023-08-31T06:01:34;1102.90;;;999.10;;
9222;SDS011;7557;51.698;3.942;2023-08-31T06:04:02;1107.75;;;999.90;;
9222;SDS011;7557;51.698;3.942;2023-08-31T06:06:30;1107.55;;;999.85;;
9222;SDS011;7557;51.698;3.942;2023-08-31T06:08:58;1117.63;;;999.90;;
9222;SDS011;7557;51.698;3.942;2023-08-31T06:11:26;969.50;;;903.15;;
9222;SDS011;7557;51.698;3.942;2023-08-31T06:13:53;990.53;;;920.75;;
9222;SDS011;7557;51.698;3.942;2023-08-31T06:16:22;905.05;;;847.60;;
9222;SDS011;7557;51.698;3.942;2023-08-31T06:18:51;929.63;;;871.67;;
9222;SDS011;7557;51.698;3.942;2023-08-31T06:21:18;899.58;;;842.17;;
9222;SDS011;7557;51.698;3.942;2023-08-31T06:23:45;933.45;;;872.75;;
9222;SDS011;7557;51.698;3.942;2023-08-31T06:26:13;964.22;;;900.45;;
9222;SDS011;7557;51.698;3.942;2023-08-31T06:28:40;1047.50;;;969.45;;
9222;SDS011;7557;51.698;3.942;2023-08-31T06:31:07;1086.72;;;996.38;;
9222;SDS011;7557;51.698;3.942;2023-08-31T06:33:36;1061.05;;;980.83;;
9222;SDS011;7557;51.698;3.942;2023-08-31T06:36:04;1068.05;;;984.83;;
9222;SDS011;7557;51.698;3.942;2023-08-31T06:38:31;1047.22;;;967.80;;
9222;SDS011;7557;51.698;3.942;2023-08-31T06:41:00;1053.20;;;973.65;;
9222;SDS011;7557;51.698;3.942;2023-08-31T06:43:28;1051.55;;;970.63;;
9222;SDS011;7557;51.698;3.942;2023-08-31T06:45:55;1051.38;;;970.00;;
9222;SDS011;7557;51.698;3.942;2023-08-31T06:48:23;1076.32;;;989.50;;
9222;SDS011;7557;51.698;3.942;2023-08-31T06:50:52;1097.20;;;998.15;;
9222;SDS011;7557;51.698;3.942;2023-08-31T06:53:19;1115.88;;;999.90;;
9222;SDS011;7557;51.698;3.942;2023-08-31T06:55:46;1138.97;;;999.90;;
9222;SDS011;7557;51.698;3.942;2023-08-31T06:58:14;1144.22;;;999.90;;
9222;SDS011;7557;51.698;3.942;2023-08-31T07:00:42;1158.65;;;999.90;;
9222;SDS011;7557;51.698;3.942;2023-08-31T07:03:09;1127.05;;;999.90;;
9222;SDS011;7557;51.698;3.942;2023-08-31T07:05:36;1161.65;;;999.90;;
9222;SDS011;7557;51.698;3.942;2023-08-31T07:08:10;1133.20;;;999.90;;
9222;SDS011;7557;51.698;3.942;2023-08-31T07:10:37;1157.85;;;999.90;;
9222;SDS011;7557;51.698;3.942;2023-08-31T07:13:04;1166.57;;;999.90;;
9222;SDS011;7557;51.698;3.942;2023-08-31T07:15:33;1137.93;;;999.90;;
9222;SDS011;7557;51.698;3.942;2023-08-31T07:18:00;1077.05;;;994.17;;
9222;SDS011;7557;51.698;3.942;2023-08-31T07:20:27;1079.88;;;994.92;;
9222;SDS011;7557;51.698;3.942;2023-08-31T07:22:54;1099.85;;;999.90;;
9222;SDS011;7557;51.698;3.942;2023-08-31T07:25:23;1027.75;;;952.25;;
9222;SDS011;7557;51.698;3.942;2023-08-31T07:27:50;1039.90;;;963.17;;
9222;SDS011;7557;51.698;3.942;2023-08-31T07:30:18;1044.38;;;964.97;;
9222;SDS011;7557;51.698;3.942;2023-08-31T07:32:46;1056.03;;;975.83;;
9222;SDS011;7557;51.698;3.942;2023-08-31T07:35:13;1062.47;;;979.78;;
9222;SDS011;7557;51.698;3.942;2023-08-31T07:37:41;1074.38;;;988.65;;
9222;SDS011;7557;51.698;3.942;2023-08-31T07:40:08;1101.53;;;999.90;;
9222;SDS011;7557;51.698;3.942;2023-08-31T07:42:37;1085.55;;;995.15;;
9222;SDS011;7557;51.698;3.942;2023-08-31T07:45:05;1087.75;;;997.63;;
9222;SDS011;7557;51.698;3.942;2023-08-31T07:47:33;1088.97;;;998.00;;
9222;SDS011;7557;51.698;3.942;2023-08-31T07:50:00;1066.03;;;982.47;;
9222;SDS011;7557;51.698;3.942;2023-08-31T07:52:28;1105.88;;;999.90;;
9222;SDS011;7557;51.698;3.942;2023-08-31T07:54:55;1108.57;;;999.70;;
9222;SDS011;7557;51.698;3.942;2023-08-31T07:57:22;1128.63;;;999.90;;
9222;SDS011;7557;51.698;3.942;2023-08-31T07:59:52;1133.50;;;999.90;;
9222;SDS011;7557;51.698;3.942;2023-08-31T08:02:19;1132.57;;;999.90;;
9222;SDS011;7557;51.698;3.942;2023-08-31T08:04:47;1149.95;;;999.90;;
9222;SDS011;7557;51.698;3.942;2023-08-31T08:07:14;1135.78;;;999.90;;
9222;SDS011;7557;51.698;3.942;2023-08-31T08:09:41;1129.38;;;999.90;;
9222;SDS011;7557;51.698;3.942;2023-08-31T08:12:09;1122.93;;;999.90;;
9222;SDS011;7557;51.698;3.942;2023-08-31T08:14:36;1133.50;;;999.90;;
9222;SDS011;7557;51.698;3.942;2023-08-31T08:17:05;1118.90;;;999.90;;
9222;SDS011;7557;51.698;3.942;2023-08-31T08:19:32;1128.07;;;999.90;;
9222;SDS011;7557;51.698;3.942;2023-08-31T08:21:59;1149.47;;;999.90;;
9222;SDS011;7557;51.698;3.942;2023-08-31T08:24:27;1145.60;;;999.90;;
9222;SDS011;7557;51.698;3.942;2023-08-31T08:26:57;1145.38;;;999.90;;
9222;SDS011;7557;51.698;3.942;2023-08-31T08:29:24;1151.25;;;999.90;;
9222;SDS011;7557;51.698;3.942;2023-08-31T08:31:51;1183.22;;;999.90;;
9222;SDS011;7557;51.698;3.942;2023-08-31T08:34:22;1162.75;;;999.90;;
9222;SDS011;7557;51.698;3.942;2023-08-31T08:36:49;1148.05;;;999.90;;
9222;SDS011;7557;51.698;3.942;2023-08-31T08:39:17;1060.88;;;973.00;;
9222;SDS011;7557;51.698;3.942;2023-08-31T08:41:44;1041.05;;;959.72;;
9222;SDS011;7557;51.698;3.942;2023-08-31T08:44:12;1021.97;;;946.33;;
9222;SDS011;7557;51.698;3.942;2023-08-31T08:46:43;1063.90;;;975.90;;
9222;SDS011;7557;51.698;3.942;2023-08-31T08:49:12;1107.75;;;998.45;;
9222;SDS011;7557;51.698;3.942;2023-08-31T08:51:45;1095.97;;;998.15;;
9222;SDS011;7557;51.698;3.942;2023-08-31T08:54:13;1053.40;;;971.42;;
9222;SDS011;7557;51.698;3.942;2023-08-31T08:56:40;994.95;;;923.92;;
9222;SDS011;7557;51.698;3.942;2023-08-31T08:59:07;959.67;;;895.00;;
9222;SDS011;7557;51.698;3.942;2023-08-31T09:01:37;966.22;;;900.63;;
9222;SDS011;7557;51.698;3.942;2023-08-31T09:04:05;942.03;;;879.55;;
9222;SDS011;7557;51.698;3.942;2023-08-31T09:06:33;836.53;;;787.97;;
9222;SDS011;7557;51.698;3.942;2023-08-31T09:09:02;916.28;;;857.85;;
9222;SDS011;7557;51.698;3.942;2023-08-31T09:11:29;961.72;;;895.85;;
9222;SDS011;7557;51.698;3.942;2023-08-31T09:13:56;960.65;;;894.88;;
9222;SDS011;7557;51.698;3.942;2023-08-31T09:16:24;943.25;;;882.30;;
9222;SDS011;7557;51.698;3.942;2023-08-31T09:18:53;948.42;;;886.28;;
9222;SDS011;7557;51.698;3.942;2023-08-31T09:21:21;803.53;;;759.20;;
9222;SDS011;7557;51.698;3.942;2023-08-31T09:23:55;811.38;;;768.03;;
9222;SDS011;7557;51.698;3.942;2023-08-31T09:26:27;921.13;;;862.42;;
9222;SDS011;7557;51.698;3.942;2023-08-31T09:28:54;862.75;;;812.10;;
9222;SDS011;7557;51.698;3.942;2023-08-31T09:31:23;863.70;;;812.42;;
9222;SDS011;7557;51.698;3.942;2023-08-31T09:33:56;744.05;;;706.55;;
9222;SDS011;7557;51.698;3.942;2023-08-31T09:36:23;913.45;;;856.92;;
9222;SDS011;7557;51.698;3.942;2023-08-31T09:38:51;671.60;;;640.92;;
9222;SDS011;7557;51.698;3.942;2023-08-31T09:41:18;741.42;;;703.92;;
9222;SDS011;7557;51.698;3.942;2023-08-31T09:43:47;742.38;;;704.85;;
9222;SDS011;7557;51.698;3.942;2023-08-31T09:46:14;761.20;;;721.60;;
9222;SDS011;7557;51.698;3.942;2023-08-31T09:48:42;659.90;;;630.25;;
9222;SDS011;7557;51.698;3.942;2023-08-31T09:51:10;725.20;;;689.53;;
9222;SDS011;7557;51.698;3.942;2023-08-31T09:53:37;738.13;;;701.20;;
9222;SDS011;7557;51.698;3.942;2023-08-31T09:56:05;805.38;;;761.80;;
9222;SDS011;7557;51.698;3.942;2023-08-31T09:58:33;773.63;;;733.75;;
9222;SDS011;7557;51.698;3.942;2023-08-31T10:01:02;728.75;;;693.35;;
9222;SDS011;7557;51.698;3.942;2023-08-31T10:03:29;861.58;;;809.67;;
9222;SDS011;7557;51.698;3.942;2023-08-31T10:05:57;861.70;;;809.80;;
9222;SDS011;7557;51.698;3.942;2023-08-31T10:08:26;708.30;;;674.47;;
9222;SDS011;7557;51.698;3.942;2023-08-31T10:10:57;752.33;;;714.28;;
9222;SDS011;7557;51.698;3.942;2023-08-31T10:13:28;762.67;;;724.05;;
9222;SDS011;7557;51.698;3.942;2023-08-31T10:16:03;796.95;;;754.47;;
9222;SDS011;7557;51.698;3.942;2023-08-31T10:18:31;737.90;;;701.25;;
9222;SDS011;7557;51.698;3.942;2023-08-31T10:21:01;779.38;;;739.20;;
9222;SDS011;7557;51.698;3.942;2023-08-31T10:23:29;759.22;;;720.03;;
9222;SDS011;7557;51.698;3.942;2023-08-31T10:25:59;742.25;;;704.25;;
9222;SDS011;7557;51.698;3.942;2023-08-31T10:28:28;689.83;;;657.83;;
9222;SDS011;7557;51.698;3.942;2023-08-31T10:31:04;681.53;;;648.92;;
9222;SDS011;7557;51.698;3.942;2023-08-31T10:33:32;740.83;;;703.35;;
9222;SDS011;7557;51.698;3.942;2023-08-31T10:36:00;721.65;;;687.05;;
9222;SDS011;7557;51.698;3.942;2023-08-31T10:38:29;697.00;;;664.13;;
9222;SDS011;7557;51.698;3.942;2023-08-31T10:41:00;737.35;;;701.80;;
9222;SDS011;7557;51.698;3.942;2023-08-31T10:43:48;654.65;;;624.83;;
9222;SDS011;7557;51.698;3.942;2023-08-31T10:46:24;601.40;;;575.88;;
9222;SDS011;7557;51.698;3.942;2023-08-31T10:48:53;561.25;;;538.55;;
9222;SDS011;7557;51.698;3.942;2023-08-31T10:51:22;677.90;;;645.67;;
9222;SDS011;7557;51.698;3.942;2023-08-31T10:54:06;643.45;;;614.38;;
9222;SDS011;7557;51.698;3.942;2023-08-31T10:56:56;698.33;;;665.00;;
9222;SDS011;7557;51.698;3.942;2023-08-31T10:59:45;632.13;;;604.15;;
9222;SDS011;7557;51.698;3.942;2023-08-31T11:02:29;682.28;;;651.13;;
9222;SDS011;7557;51.698;3.942;2023-08-31T11:05:02;617.78;;;590.92;;
9222;SDS011;7557;51.698;3.942;2023-08-31T11:07:33;750.53;;;712.22;;
9222;SDS011;7557;51.698;3.942;2023-08-31T11:10:11;774.42;;;735.17;;
9222;SDS011;7557;51.698;3.942;2023-08-31T11:12:42;822.47;;;776.70;;
9222;SDS011;7557;51.698;3.942;2023-08-31T11:15:11;825.95;;;779.85;;
9222;SDS011;7557;51.698;3.942;2023-08-31T11:17:41;828.63;;;782.25;;
9222;SDS011;7557;51.698;3.942;2023-08-31T11:20:12;790.70;;;748.10;;
9222;SDS011;7557;51.698;3.942;2023-08-31T11:22:42;830.22;;;784.33;;
9222;SDS011;7557;51.698;3.942;2023-08-31T11:25:11;782.50;;;740.63;;
9222;SDS011;7557;51.698;3.942;2023-08-31T11:27:39;758.25;;;719.03;;
9222;SDS011;7557;51.698;3.942;2023-08-31T11:30:13;742.92;;;704.97;;
9222;SDS011;7557;51.698;3.942;2023-08-31T11:32:46;770.42;;;730.55;;
9222;SDS011;7557;51.698;3.942;2023-08-31T11:35:14;751.80;;;713.80;;
9222;SDS011;7557;51.698;3.942;2023-08-31T11:37:42;703.78;;;669.83;;
9222;SDS011;7557;51.698;3.942;2023-08-31T11:40:11;672.88;;;640.92;;
9222;SDS011;7557;51.698;3.942;2023-08-31T11:42:40;718.38;;;682.45;;
9222;SDS011;7557;51.698;3.942;2023-08-31T11:45:08;735.60;;;698.45;;
9222;SDS011;7557;51.698;3.942;2023-08-31T11:47:37;669.42;;;637.88;;
9222;SDS011;7557;51.698;3.942;2023-08-31T11:50:07;754.50;;;715.90;;
9222;SDS011;7557;51.698;3.942;2023-08-31T11:52:35;740.38;;;702.80;;
9222;SDS011;7557;51.698;3.942;2023-08-31T11:55:09;669.42;;;637.50;;
9222;SDS011;7557;51.698;3.942;2023-08-31T11:57:37;710.35;;;673.88;;
9222;SDS011;7557;51.698;3.942;2023-08-31T12:00:05;639.95;;;611.58;;
9222;SDS011;7557;51.698;3.942;2023-08-31T12:02:36;756.50;;;718.83;;
9222;SDS011;7557;51.698;3.942;2023-08-31T12:05:03;392.92;;;377.77;;
9222;SDS011;7557;51.698;3.942;2023-08-31T12:07:33;427.58;;;411.20;;
9222;SDS011;7557;51.698;3.942;2023-08-31T12:10:06;543.17;;;520.40;;
9222;SDS011;7557;51.698;3.942;2023-08-31T12:12:34;561.65;;;538.10;;
9222;SDS011;7557;51.698;3.942;2023-08-31T12:15:02;600.17;;;575.25;;
9222;SDS011;7557;51.698;3.942;2023-08-31T12:17:32;507.98;;;486.80;;
9222;SDS011;7557;51.698;3.942;2023-08-31T12:20:05;472.77;;;454.92;;
9222;SDS011;7557;51.698;3.942;2023-08-31T12:22:36;388.67;;;374.85;;
9222;SDS011;7557;51.698;3.942;2023-08-31T12:25:04;398.35;;;384.00;;
9222;SDS011;7557;51.698;3.942;2023-08-31T12:27:34;242.80;;;234.82;;
9222;SDS011;7557;51.698;3.942;2023-08-31T12:30:01;265.27;;;256.13;;
9222;SDS011;7557;51.698;3.942;2023-08-31T12:32:29;177.27;;;171.02;;
9222;SDS011;7557;51.698;3.942;2023-08-31T12:34:56;134.35;;;129.85;;
9222;SDS011;7557;51.698;3.942;2023-08-31T12:37:23;170.13;;;164.45;;
9222;SDS011;7557;51.698;3.942;2023-08-31T12:39:52;139.85;;;135.10;;
9222;SDS011;7557;51.698;3.942;2023-08-31T12:42:20;64.10;;;61.80;;
9222;SDS011;7557;51.698;3.942;2023-08-31T12:44:47;138.48;;;133.55;;
9222;SDS011;7557;51.698;3.942;2023-08-31T12:47:14;74.53;;;71.93;;
9222;SDS011;7557;51.698;3.942;2023-08-31T12:49:41;78.00;;;75.13;;
9222;SDS011;7557;51.698;3.942;2023-08-31T12:52:09;78.13;;;75.47;;
9222;SDS011;7557;51.698;3.942;2023-08-31T12:54:36;186.93;;;180.65;;
9222;SDS011;7557;51.698;3.942;2023-08-31T12:57:05;24.08;;;23.02;;
9222;SDS011;7557;51.698;3.942;2023-08-31T12:59:32;154.38;;;149.10;;
9222;SDS011;7557;51.698;3.942;2023-08-31T13:01:59;157.73;;;152.40;;
9222;SDS011;7557;51.698;3.942;2023-08-31T13:04:28;218.40;;;210.82;;
9222;SDS011;7557;51.698;3.942;2023-08-31T13:06:56;217.73;;;210.25;;
9222;SDS011;7557;51.698;3.942;2023-08-31T13:09:25;216.82;;;209.50;;
9222;SDS011;7557;51.698;3.942;2023-08-31T13:11:53;170.02;;;164.07;;
9222;SDS011;7557;51.698;3.942;2023-08-31T13:14:22;145.88;;;140.75;;
9222;SDS011;7557;51.698;3.942;2023-08-31T13:16:49;442.33;;;425.13;;
9222;SDS011;7557;51.698;3.942;2023-08-31T13:19:16;333.77;;;321.58;;
9222;SDS011;7557;51.698;3.942;2023-08-31T13:21:45;438.90;;;421.98;;
9222;SDS011;7557;51.698;3.942;2023-08-31T13:24:12;307.80;;;297.02;;
9222;SDS011;7557;51.698;3.942;2023-08-31T13:26:41;385.13;;;369.90;;
9222;SDS011;7557;51.698;3.942;2023-08-31T13:29:12;511.02;;;491.02;;
9222;SDS011;7557;51.698;3.942;2023-08-31T13:31:41;499.17;;;480.00;;
9222;SDS011;7557;51.698;3.942;2023-08-31T13:34:09;560.83;;;537.20;;
9222;SDS011;7557;51.698;3.942;2023-08-31T13:36:36;569.65;;;545.92;;
9222;SDS011;7557;51.698;3.942;2023-08-31T13:39:03;563.30;;;540.30;;
9222;SDS011;7557;51.698;3.942;2023-08-31T13:41:32;568.35;;;544.88;;
9222;SDS011;7557;51.698;3.942;2023-08-31T13:44:00;550.25;;;528.17;;
9222;SDS011;7557;51.698;3.942;2023-08-31T13:46:27;588.17;;;563.90;;
9222;SDS011;7557;51.698;3.942;2023-08-31T13:48:58;537.65;;;516.55;;
9222;SDS011;7557;51.698;3.942;2023-08-31T13:51:27;359.85;;;347.08;;
9222;SDS011;7557;51.698;3.942;2023-08-31T13:53:54;280.10;;;270.52;;
9222;SDS011;7557;51.698;3.942;2023-08-31T13:56:21;159.90;;;154.65;;
9222;SDS011;7557;51.698;3.942;2023-08-31T13:58:49;288.75;;;278.67;;
9222;SDS011;7557;51.698;3.942;2023-08-31T14:01:16;453.73;;;436.73;;
9222;SDS011;7557;51.698;3.942;2023-08-31T14:03:44;561.40;;;538.42;;
9222;SDS011;7557;51.698;3.942;2023-08-31T14:06:16;487.73;;;468.42;;
9222;SDS011;7557;51.698;3.942;2023-08-31T14:08:43;478.02;;;459.70;;
9222;SDS011;7557;51.698;3.942;2023-08-31T14:11:11;558.90;;;536.83;;
9222;SDS011;7557;51.698;3.942;2023-08-31T14:13:38;577.47;;;553.75;;
9222;SDS011;7557;51.698;3.942;2023-08-31T14:16:06;622.00;;;589.33;;
9222;SDS011;7557;51.698;3.942;2023-08-31T14:18:34;519.63;;;498.75;;
9222;SDS011;7557;51.698;3.942;2023-08-31T14:21:01;563.70;;;540.75;;
9222;SDS011;7557;51.698;3.942;2023-08-31T14:23:30;506.58;;;486.73;;
9222;SDS011;7557;51.698;3.942;2023-08-31T14:26:00;485.48;;;467.02;;